SBRF/REC METAR and TAF weather

Enter ICAO airport designator
Station Type Date Time Source
SBRF METAR 2020/11/25 22:00 UTC NOAA

SBRF 252200Z 15009KT 9999 SCT023 27/22 Q1013


Station Type Date Time Source
SBRF Decoded METAR 2020/11/25 22:00 UTC NOAA

Recife Aeroporto , Brazil (SBRF) 08-04S 034-51W
Nov 25, 2020 - 05:00 PM EST / 2020.11.25 2200 UTC
Wind: from the SSE (150 degrees) at 10 MPH (9 KT):0
Visibility: greater than 7 mile(s):0
Sky conditions: partly cloudy
Temperature: 80 F (27 C)
Dew Point: 71 F (22 C)
Relative Humidity: 74%
Pressure (altimeter): 29.91 in. Hg (1013 hPa)
ob: SBRF 252200Z 15009KT 9999 SCT023 27/22 Q1013
cycle: 22

Station Type Date Time Source
SBRF TAF 2020/11/25 18:13 UTC NOAA

TAF SBRF 251500Z 2518/2618 12010KT 9999 BKN025 TN24/2609Z TX29/2616Z
BECMG 2523/2601 SCT023
BECMG 2610/2612 5000 RA BKN015 FEW022TCU
BECMG 2614/2616 9999 NSW SCT020 FEW025TCU
BECMG 2616/2618 SCT023
RMK PFV

Example: see airport list